Time;durP1;ratioP1;P1;durP2;ratioP2;P2;SDS_P1;SDS_P2;PMS_P1;PMS_P2;Temp;Humidity;BMP_temperature;BMP_pressure;BME280_temperature;BME280_humidity;BME280_pressure;Samples;Min_cycle;Max_cycle;Signal;HPM_P1;HPM_P2
2022/04/12 00:00:00;;;;;;;2.60;2.40;;;7.90;80.00;;;;;;5075112;28;20021;-60
2022/04/12 00:02:27;;;;;;;3.13;2.50;;;7.80;79.90;;;;;;5061347;28;20104;-60
2022/04/12 00:04:54;;;;;;;2.60;2.40;;;7.80;79.90;;;;;;5075220;28;20028;-59
2022/04/12 00:07:20;;;;;;;2.55;2.35;;;7.80;79.90;;;;;;5073518;28;20039;-60
2022/04/12 00:09:46;;;;;;;3.85;2.60;;;7.80;80.30;;;;;;5075542;28;20060;-60
2022/04/12 00:12:14;;;;;;;2.53;2.33;;;7.80;80.40;;;;;;5072636;28;20109;-60
2022/04/12 00:14:40;;;;;;;4.70;2.55;;;7.70;80.60;;;;;;5075089;28;20028;-60
2022/04/12 00:19:50;;;;;;;2.65;2.45;;;7.70;80.50;;;;;;5075735;28;20078;-60
2022/04/12 00:22:15;;;;;;;3.47;2.65;;;7.70;80.50;;;;;;5075886;28;20565;-60
2022/04/12 00:24:41;;;;;;;3.25;2.95;;;7.60;80.50;;;;;;5075498;28;20507;-60
2022/04/12 00:27:06;;;;;;;2.60;2.40;;;7.60;80.70;;;;;;5073211;28;20025;-60
2022/04/12 00:29:38;;;;;;;3.00;2.70;;;7.60;80.60;;;;;;5066842;28;20024;-60
2022/04/12 00:32:04;;;;;;;3.00;2.70;;;7.60;80.40;;;;;;5061737;28;20141;-60
2022/04/12 00:34:30;;;;;;;3.67;2.90;;;7.60;80.20;;;;;;5075541;28;20391;-59
2022/04/12 00:36:55;;;;;;;3.00;2.70;;;7.60;80.10;;;;;;5075039;28;20016;-59
2022/04/12 00:39:21;;;;;;;3.47;2.70;;;7.60;80.20;;;;;;5075394;28;20105;-59
2022/04/12 00:41:46;;;;;;;3.03;2.72;;;7.60;80.30;;;;;;5075625;28;20025;-59
2022/04/12 00:44:12;;;;;;;3.55;2.97;;;7.50;80.20;;;;;;5072870;28;20057;-60
2022/04/12 00:46:38;;;;;;;4.07;2.85;;;7.50;80.00;;;;;;5066951;28;20024;-59
2022/04/12 00:49:03;;;;;;;3.75;2.83;;;7.50;79.90;;;;;;5075230;28;20539;-60
2022/04/12 00:51:29;;;;;;;3.17;2.58;;;7.50;79.80;;;;;;5075469;28;20107;-60
2022/04/12 00:53:58;;;;;;;3.00;2.80;;;7.50;79.50;;;;;;5075268;28;20028;-60
2022/04/12 00:56:25;;;;;;;2.58;2.38;;;7.40;79.30;;;;;;5075171;28;20030;-60
2022/04/12 00:58:51;;;;;;;2.72;2.40;;;7.40;79.10;;;;;;5074937;28;20028;-60
2022/04/12 01:01:17;;;;;;;3.00;2.70;;;7.40;79.40;;;;;;5068826;28;20081;-60
2022/04/12 01:03:43;;;;;;;4.10;2.72;;;7.30;79.40;;;;;;5067556;28;20524;-60
2022/04/12 01:06:08;;;;;;;4.70;2.88;;;7.30;79.10;;;;;;5074946;28;20555;-60
2022/04/12 01:08:35;;;;;;;3.15;2.42;;;7.30;79.30;;;;;;5074737;28;20035;-60
2022/04/12 01:11:07;;;;;;;2.95;2.58;;;7.30;79.20;;;;;;5074800;28;20028;-59
2022/04/12 01:13:36;;;;;;;3.65;2.70;;;7.30;79.10;;;;;;5074795;28;20032;-60
2022/04/12 01:16:04;;;;;;;2.90;2.65;;;7.30;79.00;;;;;;5074643;28;20031;-60
2022/04/12 01:18:30;;;;;;;2.47;2.28;;;7.30;79.20;;;;;;5069657;28;20025;-60
2022/04/12 01:20:56;;;;;;;3.33;2.55;;;7.30;79.20;;;;;;5073678;28;20025;-60
2022/04/12 01:23:42;;;;;;;2.90;2.58;;;7.30;79.10;;;;;;5074527;28;20032;-60
2022/04/12 01:26:08;;;;;;;3.08;2.63;;;7.30;79.10;;;;;;5074503;28;20108;-60
2022/04/12 01:28:34;;;;;;;3.45;2.38;;;7.30;78.90;;;;;;5074463;28;20663;-60
2022/04/12 01:31:00;;;;;;;2.42;2.22;;;7.30;79.00;;;;;;5073597;28;20480;-60
2022/04/12 01:33:25;;;;;;;2.60;2.40;;;7.30;79.10;;;;;;5074478;28;20064;-60
2022/04/12 01:35:51;;;;;;;4.65;2.55;;;7.30;79.00;;;;;;5073555;28;20031;-60
2022/04/12 01:38:17;;;;;;;3.03;2.22;;;7.30;78.70;;;;;;5074292;28;20087;-60
2022/04/12 01:40:43;;;;;;;2.40;2.25;;;7.30;78.40;;;;;;5074139;28;20522;-60
2022/04/12 01:43:10;;;;;;;3.58;2.60;;;7.30;78.60;;;;;;5074151;28;20379;-60
2022/04/12 01:45:36;;;;;;;3.63;2.50;;;7.30;78.50;;;;;;5074112;28;20031;-60
2022/04/12 01:48:01;;;;;;;2.90;2.30;;;7.30;78.50;;;;;;5074263;28;20025;-60
2022/04/12 01:50:27;;;;;;;3.15;2.58;;;7.30;78.60;;;;;;5074027;28;20024;-60
2022/04/12 01:52:53;;;;;;;3.70;2.45;;;7.30;78.40;;;;;;5073009;28;20456;-60
2022/04/12 01:55:18;;;;;;;3.65;2.67;;;7.30;78.20;;;;;;5073883;28;20028;-60
2022/04/12 01:57:45;;;;;;;2.97;2.50;;;7.30;78.00;;;;;;5073840;28;20020;-60
2022/04/12 02:00:11;;;;;;;3.47;2.60;;;7.30;78.00;;;;;;5073386;28;20555;-60
2022/04/12 02:02:37;;;;;;;5.20;2.60;;;7.30;78.00;;;;;;5071725;28;20033;-60
2022/04/12 02:05:03;;;;;;;2.58;2.38;;;7.30;77.80;;;;;;5073750;28;20119;-60
2022/04/12 02:07:28;;;;;;;5.82;2.97;;;7.30;77.90;;;;;;5073722;28;20387;-59
2022/04/12 02:09:54;;;;;;;2.88;2.22;;;7.30;78.50;;;;;;5072994;28;20017;-59
2022/04/12 02:12:20;;;;;;;3.00;2.70;;;7.30;78.00;;;;;;5073476;28;20020;-60
2022/04/12 02:14:45;;;;;;;2.78;2.22;;;7.30;78.00;;;;;;5073948;28;20388;-59
2022/04/12 02:17:11;;;;;;;2.53;2.33;;;7.30;78.10;;;;;;5073900;28;20028;-60
2022/04/12 02:19:36;;;;;;;4.20;2.88;;;7.30;77.80;;;;;;5073519;28;20028;-60
2022/04/12 02:22:02;;;;;;;3.25;2.40;;;7.30;77.70;;;;;;5071980;28;20029;-60
2022/04/12 02:24:28;;;;;;;5.15;2.50;;;7.30;77.60;;;;;;5061817;28;20021;-60
2022/04/12 02:26:54;;;;;;;2.30;2.10;;;7.30;77.60;;;;;;5072411;28;20028;-60
2022/04/12 02:29:20;;;;;;;2.67;2.40;;;7.30;78.00;;;;;;5073207;28;20025;-59
2022/04/12 02:31:45;;;;;;;2.35;2.15;;;7.40;77.90;;;;;;5073132;28;20042;-60
2022/04/12 02:34:11;;;;;;;4.10;2.30;;;7.30;77.60;;;;;;5073053;28;20038;-60
2022/04/12 02:36:37;;;;;;;2.40;2.20;;;7.40;77.40;;;;;;5073278;28;20056;-60
2022/04/12 02:39:03;;;;;;;2.53;2.22;;;7.40;77.20;;;;;;5073126;28;20052;-60
2022/04/12 02:41:30;;;;;;;2.50;2.30;;;7.40;77.00;;;;;;5073070;28;20437;-60
2022/04/12 02:43:55;;;;;;;2.67;2.30;;;7.40;77.00;;;;;;5065242;28;20017;-60
2022/04/12 02:46:21;;;;;;;2.58;2.40;;;7.40;77.00;;;;;;5073134;28;20028;-60
2022/04/12 02:48:46;;;;;;;2.33;2.13;;;7.40;77.00;;;;;;5072920;28;20078;-60
2022/04/12 02:51:12;;;;;;;2.42;2.20;;;7.50;76.80;;;;;;5073090;28;20439;-60
2022/04/12 02:53:38;;;;;;;3.03;2.50;;;7.50;76.60;;;;;;5072940;28;20439;-60
2022/04/12 02:56:06;;;;;;;2.40;2.20;;;7.50;76.40;;;;;;5072891;28;20341;-60
2022/04/12 02:58:31;;;;;;;2.63;2.42;;;7.50;76.20;;;;;;5072966;28;20029;-60
2022/04/12 03:00:57;;;;;;;2.53;2.30;;;7.60;76.00;;;;;;5065484;28;20485;-60
2022/04/12 03:03:23;;;;;;;2.58;2.25;;;7.60;75.90;;;;;;5062061;28;20024;-60
2022/04/12 03:05:49;;;;;;;3.15;2.50;;;7.60;75.80;;;;;;5072758;28;20024;-60
2022/04/12 03:08:17;;;;;;;2.97;2.40;;;7.60;75.60;;;;;;5072737;28;20399;-60
2022/04/12 03:10:43;;;;;;;3.40;2.40;;;7.70;75.30;;;;;;5071788;28;20063;-60
2022/04/12 03:13:08;;;;;;;3.92;2.60;;;7.70;75.20;;;;;;5072807;28;20067;-60
2022/04/12 03:15:34;;;;;;;3.03;2.40;;;7.70;74.90;;;;;;5072758;28;20025;-60
2022/04/12 03:18:00;;;;;;;4.07;2.58;;;7.70;74.60;;;;;;5070379;28;20489;-60
2022/04/12 03:20:25;;;;;;;2.67;2.40;;;7.70;74.50;;;;;;5072520;28;20373;-60
2022/04/12 03:22:51;;;;;;;3.45;2.35;;;7.70;74.40;;;;;;5072691;28;20586;-60
2022/04/12 03:25:17;;;;;;;4.40;2.40;;;7.70;74.50;;;;;;5072841;28;20039;-60
2022/04/12 03:27:42;;;;;;;2.97;2.40;;;7.70;74.40;;;;;;5072678;28;20028;-60
2022/04/12 03:30:08;;;;;;;2.55;2.30;;;7.70;74.30;;;;;;5072414;28;20021;-60
2022/04/12 03:32:34;;;;;;;2.63;2.38;;;7.70;74.30;;;;;;5058731;28;20036;-60
2022/04/12 03:35:00;;;;;;;4.97;2.60;;;7.70;74.10;;;;;;5063170;28;20029;-60
2022/04/12 03:37:25;;;;;;;3.60;2.67;;;7.70;74.00;;;;;;5070150;28;20025;-60
2022/04/12 03:39:51;;;;;;;3.65;2.40;;;7.70;73.90;;;;;;5072643;28;20479;-59
2022/04/12 03:42:18;;;;;;;2.72;2.40;;;7.70;73.90;;;;;;5072313;28;20482;-60
2022/04/12 03:44:45;;;;;;;3.60;2.65;;;7.70;73.60;;;;;;5072315;28;20025;-59
2022/04/12 03:47:11;;;;;;;3.78;2.90;;;7.70;73.40;;;;;;5072422;28;20468;-60
2022/04/12 03:49:36;;;;;;;5.30;2.67;;;7.80;73.60;;;;;;5072500;28;20219;-60
2022/04/12 03:52:02;;;;;;;6.43;3.35;;;7.80;73.50;;;;;;5065518;28;20036;-60
2022/04/12 03:54:28;;;;;;;2.75;2.45;;;7.80;73.10;;;;;;5072286;28;20484;-60
2022/04/12 03:56:54;;;;;;;2.75;2.47;;;7.80;73.00;;;;;;5072305;28;20472;-60
2022/04/12 03:59:20;;;;;;;3.58;2.50;;;7.80;72.90;;;;;;5072393;28;20033;-60
2022/04/12 04:01:46;;;;;;;2.58;2.35;;;7.70;72.70;;;;;;5064542;28;20028;-60
2022/04/12 04:04:12;;;;;;;4.50;2.60;;;7.70;72.40;;;;;;5072311;28;20417;-59
2022/04/12 04:06:38;;;;;;;4.55;2.60;;;7.60;72.30;;;;;;5072375;28;20025;-60
2022/04/12 04:09:04;;;;;;;3.67;2.38;;;7.60;72.60;;;;;;5065400;28;20024;-60
2022/04/12 04:11:29;;;;;;;2.28;2.08;;;7.50;72.60;;;;;;5072111;28;20035;-60
2022/04/12 04:13:55;;;;;;;2.50;2.25;;;7.50;73.20;;;;;;5072378;28;20487;-60
2022/04/12 04:16:21;;;;;;;4.10;2.42;;;7.50;73.30;;;;;;5072347;28;20040;-60
2022/04/12 04:18:47;;;;;;;2.95;2.20;;;7.40;73.50;;;;;;5072022;28;20039;-60
2022/04/12 04:21:12;;;;;;;2.60;2.30;;;7.40;73.80;;;;;;5071284;28;20021;-61
2022/04/12 04:23:38;;;;;;;3.28;2.38;;;7.30;74.20;;;;;;5075163;28;20458;-60
2022/04/12 04:26:04;;;;;;;2.45;2.25;;;7.30;74.30;;;;;;5074965;28;20656;-60
2022/04/12 04:28:30;;;;;;;2.78;2.30;;;7.20;74.50;;;;;;5075797;28;20484;-60
2022/04/12 04:30:56;;;;;;;3.03;2.47;;;7.20;74.90;;;;;;5073564;28;20017;-60
2022/04/12 04:33:22;;;;;;;2.40;2.20;;;7.20;75.20;;;;;;5075626;28;20028;-60
2022/04/12 04:35:49;;;;;;;2.92;2.45;;;7.10;75.40;;;;;;5075396;28;20027;-60
2022/04/12 04:38:15;;;;;;;2.38;2.13;;;7.10;75.60;;;;;;5069782;28;20076;-60
2022/04/12 04:40:41;;;;;;;2.47;2.25;;;7.00;75.80;;;;;;5059162;28;20113;-59
2022/04/12 04:43:08;;;;;;;3.33;2.30;;;7.00;76.10;;;;;;5071906;28;20032;-60
2022/04/12 04:45:34;;;;;;;3.33;2.20;;;6.90;76.30;;;;;;5072555;28;20476;-60
2022/04/12 04:48:02;;;;;;;2.42;2.20;;;6.90;76.90;;;;;;5072462;28;20048;-60
2022/04/12 04:50:32;;;;;;;2.70;2.50;;;6.90;77.10;;;;;;5073059;28;20088;-60
2022/04/12 04:52:59;;;;;;;2.75;2.28;;;6.90;77.10;;;;;;5072496;28;20032;-59
2022/04/12 04:55:26;;;;;;;2.72;2.30;;;6.90;77.30;;;;;;5064576;28;20032;-60
2022/04/12 04:57:56;;;;;;;2.50;2.30;;;6.90;77.70;;;;;;5065306;28;20020;-60
2022/04/12 05:00:29;;;;;;;4.05;2.33;;;6.90;77.80;;;;;;5064022;28;20032;-60
2022/04/12 05:02:58;;;;;;;3.97;2.35;;;6.90;78.10;;;;;;5065818;28;21130;-59
2022/04/12 05:05:25;;;;;;;2.35;2.20;;;6.90;78.00;;;;;;5072225;28;20055;-60
2022/04/12 05:07:53;;;;;;;2.25;2.05;;;6.90;78.40;;;;;;5063706;28;20353;-60
2022/04/12 05:10:26;;;;;;;2.42;2.20;;;6.90;78.40;;;;;;5071224;28;20031;-60
2022/04/12 05:12:51;;;;;;;4.38;2.50;;;6.90;78.40;;;;;;5066592;28;20111;-59
2022/04/12 05:15:18;;;;;;;2.78;2.05;;;6.90;78.30;;;;;;5061068;28;20452;-60
2022/04/12 05:17:54;;;;;;;3.17;2.20;;;6.90;78.40;;;;;;5063219;28;20020;-59
2022/04/12 05:20:22;;;;;;;2.35;2.10;;;6.90;78.20;;;;;;5068260;28;20028;-60
2022/04/12 05:22:47;;;;;;;2.47;2.28;;;6.80;78.50;;;;;;5064711;28;20028;-60
2022/04/12 05:25:13;;;;;;;2.95;2.28;;;6.80;78.90;;;;;;5064188;28;20028;-60
2022/04/12 05:27:39;;;;;;;2.28;2.05;;;6.80;79.10;;;;;;5066605;28;20035;-60
2022/04/12 05:30:08;;;;;;;2.35;2.15;;;6.90;79.20;;;;;;5071872;28;20123;-59
2022/04/12 05:32:35;;;;;;;2.85;2.50;;;6.90;79.20;;;;;;5066764;28;20482;-59
2022/04/12 05:35:01;;;;;;;3.17;2.85;;;6.90;79.20;;;;;;5067105;28;20033;-59
2022/04/12 05:37:28;;;;;;;2.58;2.35;;;6.90;79.30;;;;;;5068534;28;20043;-60
2022/04/12 05:39:56;;;;;;;2.55;2.35;;;6.90;79.50;;;;;;5068202;28;20150;-60
2022/04/12 05:42:25;;;;;;;2.90;2.70;;;6.90;79.60;;;;;;5064442;28;20082;-60
2022/04/12 05:44:51;;;;;;;2.50;2.30;;;6.90;79.70;;;;;;5063799;28;20025;-59
2022/04/12 05:47:16;;;;;;;2.50;2.30;;;6.90;79.70;;;;;;5063218;28;20047;-60
2022/04/12 05:49:42;;;;;;;4.25;2.20;;;6.90;79.60;;;;;;5059566;28;20595;-60
2022/04/12 05:52:08;;;;;;;2.75;2.30;;;6.90;79.60;;;;;;5055881;28;20029;-59
2022/04/12 05:54:34;;;;;;;3.95;2.72;;;6.90;79.80;;;;;;5054698;28;20082;-60
2022/04/12 05:57:00;;;;;;;2.80;2.53;;;6.90;80.00;;;;;;5052578;28;20051;-60
2022/04/12 05:59:26;;;;;;;3.38;2.35;;;6.90;80.00;;;;;;5057626;28;20032;-59
2022/04/12 06:01:51;;;;;;;2.80;2.58;;;6.90;79.80;;;;;;5050962;28;20036;-59
2022/04/12 06:04:17;;;;;;;3.35;2.35;;;6.90;80.20;;;;;;5055397;28;20032;-59
2022/04/12 06:06:43;;;;;;;3.03;2.67;;;6.90;80.10;;;;;;5057343;28;20040;-60
2022/04/12 06:09:08;;;;;;;3.50;2.30;;;6.90;80.10;;;;;;5056052;28;20111;-60
2022/04/12 06:11:35;;;;;;;4.70;2.78;;;6.90;80.20;;;;;;5063361;28;20675;-60
2022/04/12 06:14:00;;;;;;;2.83;2.53;;;7.00;80.20;;;;;;5056299;28;20016;-60
2022/04/12 06:16:26;;;;;;;4.05;2.50;;;7.00;80.20;;;;;;5062335;28;20025;-60
2022/04/12 06:18:53;;;;;;;2.97;2.42;;;7.00;80.20;;;;;;5060811;28;20052;-60
2022/04/12 06:21:19;;;;;;;3.63;2.78;;;7.00;80.40;;;;;;5058360;28;22858;-59
2022/04/12 06:23:44;;;;;;;3.55;2.90;;;7.00;80.60;;;;;;5055059;28;20032;-60
2022/04/12 06:26:10;;;;;;;3.60;2.95;;;7.00;80.60;;;;;;5059114;28;20025;-59
2022/04/12 06:28:36;;;;;;;2.80;2.47;;;7.00;80.40;;;;;;5059071;28;20031;-59
2022/04/12 06:31:02;;;;;;;2.92;2.63;;;7.00;80.30;;;;;;5063142;28;20045;-59
2022/04/12 06:33:28;;;;;;;2.92;2.50;;;7.00;80.40;;;;;;5057280;28;20029;-59
2022/04/12 06:35:56;;;;;;;3.20;2.70;;;7.00;80.60;;;;;;5058931;28;20025;-59
2022/04/12 06:38:25;;;;;;;2.50;2.30;;;7.00;80.60;;;;;;5052948;28;20049;-61
2022/04/12 06:40:51;;;;;;;3.88;2.55;;;7.00;80.90;;;;;;5050708;28;20025;-59
2022/04/12 06:43:16;;;;;;;3.00;2.22;;;7.00;81.10;;;;;;5059352;28;20033;-58
2022/04/12 06:45:43;;;;;;;3.95;3.08;;;7.10;80.90;;;;;;5052023;28;20037;-58
2022/04/12 06:48:09;;;;;;;3.47;2.70;;;7.10;80.60;;;;;;5055315;28;20698;-60
2022/04/12 06:50:35;;;;;;;2.78;2.58;;;7.10;80.70;;;;;;5047739;28;20024;-59
2022/04/12 06:53:03;;;;;;;6.60;2.72;;;7.20;80.70;;;;;;5054909;28;20033;-59
2022/04/12 06:55:29;;;;;;;3.75;2.58;;;7.10;80.80;;;;;;5051971;28;20701;-59
2022/04/12 06:57:56;;;;;;;3.38;2.28;;;7.20;81.00;;;;;;5056238;28;20016;-58
2022/04/12 07:00:23;;;;;;;4.25;2.75;;;7.20;81.10;;;;;;5048446;28;21904;-59
2022/04/12 07:02:49;;;;;;;2.53;2.33;;;7.20;81.00;;;;;;5049590;28;20070;-59
2022/04/12 07:05:15;;;;;;;2.70;2.50;;;7.30;81.00;;;;;;5049276;28;20028;-59
2022/04/12 07:07:42;;;;;;;2.90;2.45;;;7.30;80.90;;;;;;5045990;28;21733;-59
2022/04/12 07:10:10;;;;;;;3.20;2.50;;;7.30;80.80;;;;;;5047529;28;20683;-59
2022/04/12 07:12:37;;;;;;;3.70;2.60;;;7.30;80.70;;;;;;5039350;28;22365;-59
2022/04/12 07:15:04;;;;;;;3.47;2.40;;;7.40;80.80;;;;;;5039884;28;21055;-59
2022/04/12 07:17:31;;;;;;;2.53;2.33;;;7.30;80.60;;;;;;5051105;28;20392;-60
2022/04/12 07:19:57;;;;;;;3.58;2.53;;;7.40;80.60;;;;;;5048494;28;20074;-60
2022/04/12 07:22:24;;;;;;;2.45;2.20;;;7.40;80.50;;;;;;5049860;28;20021;-59
2022/04/12 07:24:50;;;;;;;2.88;2.50;;;7.30;80.30;;;;;;5050845;28;20967;-59
2022/04/12 07:27:16;;;;;;;2.60;2.40;;;7.30;80.60;;;;;;5048692;28;20115;-60
2022/04/12 07:29:41;;;;;;;2.72;2.22;;;7.30;80.70;;;;;;5048424;28;20104;-60
2022/04/12 07:32:07;;;;;;;2.97;2.58;;;7.40;80.80;;;;;;5050569;28;20031;-60
2022/04/12 07:34:33;;;;;;;2.60;2.28;;;7.40;80.60;;;;;;5049250;28;20452;-60
2022/04/12 07:36:59;;;;;;;2.50;2.30;;;7.40;80.50;;;;;;5049331;28;20040;-60
2022/04/12 07:39:25;;;;;;;2.63;2.40;;;7.40;80.50;;;;;;5054820;28;20077;-60
2022/04/12 07:41:51;;;;;;;2.75;2.53;;;7.40;80.20;;;;;;5052134;28;20105;-60
2022/04/12 07:44:19;;;;;;;2.50;2.30;;;7.40;80.40;;;;;;5057006;28;20025;-59
2022/04/12 07:46:45;;;;;;;2.40;2.25;;;7.40;80.30;;;;;;5048520;28;20025;-59
2022/04/12 07:49:11;;;;;;;3.05;2.35;;;7.40;80.40;;;;;;5050234;28;20024;-61
2022/04/12 07:51:38;;;;;;;3.28;2.45;;;7.40;80.80;;;;;;5050170;28;20123;-61
2022/04/12 07:54:04;;;;;;;2.60;2.30;;;7.50;80.10;;;;;;5055851;28;20029;-60
2022/04/12 07:56:31;;;;;;;2.47;2.28;;;7.50;79.80;;;;;;5052158;28;20031;-58
2022/04/12 07:58:56;;;;;;;2.47;2.28;;;7.50;79.70;;;;;;5057585;28;20029;-60
2022/04/12 08:01:22;;;;;;;2.60;2.15;;;7.50;79.70;;;;;;5048246;28;20062;-60
2022/04/12 08:03:48;;;;;;;2.47;2.00;;;7.50;79.80;;;;;;5052906;28;20021;-61
2022/04/12 08:06:14;;;;;;;3.05;2.20;;;7.60;79.70;;;;;;5057570;28;20024;-59
2022/04/12 08:08:40;;;;;;;2.13;1.92;;;7.60;79.30;;;;;;5048942;28;20033;-60
2022/04/12 08:11:07;;;;;;;1.83;1.73;;;7.60;79.50;;;;;;5050331;28;20028;-60
2022/04/12 08:13:33;;;;;;;2.65;2.20;;;7.60;79.60;;;;;;5050610;28;20051;-61
2022/04/12 08:15:59;;;;;;;2.28;2.05;;;7.70;79.80;;;;;;5054038;28;20029;-60
2022/04/12 08:18:25;;;;;;;2.22;2.03;;;7.70;79.40;;;;;;5053513;28;20028;-60
2022/04/12 08:20:51;;;;;;;2.78;2.03;;;7.70;79.20;;;;;;5044645;28;20047;-60
2022/04/12 08:23:20;;;;;;;2.30;2.10;;;7.80;79.30;;;;;;5047897;28;20060;-59
2022/04/12 08:25:45;;;;;;;2.05;1.85;;;7.80;78.80;;;;;;5044697;28;20032;-60
2022/04/12 08:28:11;;;;;;;2.92;2.40;;;7.80;78.40;;;;;;5051207;28;20035;-60
2022/04/12 08:30:37;;;;;;;3.22;2.00;;;7.80;78.40;;;;;;5045096;28;20813;-60
2022/04/12 08:33:03;;;;;;;2.30;2.00;;;7.80;78.40;;;;;;5049645;28;20044;-60
2022/04/12 08:35:29;;;;;;;2.08;1.90;;;7.90;78.10;;;;;;5050553;28;20036;-60
2022/04/12 08:37:55;;;;;;;2.50;2.30;;;7.90;78.00;;;;;;5047355;28;20044;-60
2022/04/12 08:40:21;;;;;;;2.20;2.10;;;7.90;77.90;;;;;;5050305;28;20460;-60
2022/04/12 08:42:47;;;;;;;3.42;2.60;;;8.00;77.60;;;;;;5045647;28;20131;-60
2022/04/12 08:45:13;;;;;;;4.47;2.63;;;8.10;77.50;;;;;;5043338;28;20530;-60
2022/04/12 08:47:41;;;;;;;4.25;3.30;;;8.10;77.30;;;;;;5046734;28;20107;-59
2022/04/12 08:50:09;;;;;;;3.20;2.65;;;8.20;77.40;;;;;;5042666;28;20086;-60
2022/04/12 08:52:38;;;;;;;2.47;2.25;;;8.20;77.10;;;;;;5042888;28;20020;-60
2022/04/12 08:55:06;;;;;;;2.28;2.08;;;8.30;76.90;;;;;;5048413;28;20064;-60
2022/04/12 08:57:32;;;;;;;1.65;1.55;;;8.30;76.70;;;;;;5045715;28;20036;-60
2022/04/12 08:59:58;;;;;;;2.13;2.03;;;8.40;76.30;;;;;;5044851;28;20036;-60
2022/04/12 09:02:24;;;;;;;2.40;2.20;;;8.50;76.10;;;;;;5035105;28;20119;-59
2022/04/12 09:04:50;;;;;;;3.58;2.20;;;8.50;75.80;;;;;;5039531;28;20051;-60
2022/04/12 09:07:17;;;;;;;2.38;2.17;;;8.60;75.30;;;;;;5044872;28;20024;-60
2022/04/12 09:09:43;;;;;;;3.40;2.03;;;8.60;74.90;;;;;;5048591;28;20164;-60
2022/04/12 09:12:14;;;;;;;3.15;1.98;;;8.70;74.60;;;;;;5054927;28;20059;-60
2022/04/12 09:14:56;;;;;;;2.63;1.90;;;8.70;74.20;;;;;;5046925;28;20029;-60
2022/04/12 09:17:28;;;;;;;;;;;8.80;74.00;;;;;;5058233;28;20032;-60
2022/04/12 09:19:55;;;;;;;2.40;2.03;;;8.70;73.00;;;;;;5046223;28;20368;-60
2022/04/12 09:22:23;;;;;;;2.33;2.00;;;8.80;74.00;;;;;;5042720;28;20029;-60
2022/04/12 09:24:56;;;;;;;2.88;2.10;;;8.90;73.60;;;;;;5049668;28;20036;-60
2022/04/12 09:27:57;;;;;;;2.00;1.85;;;8.90;73.10;;;;;;5047097;28;20024;-60
2022/04/12 09:31:03;;;;;;;2.88;2.30;;;9.00;72.30;;;;;;5047212;28;20021;-61
2022/04/12 09:34:03;;;;;;;2.55;2.35;;;9.00;72.30;;;;;;5044182;28;20025;-60
2022/04/12 09:36:34;;;;;;;3.30;2.10;;;9.00;71.90;;;;;;5052343;28;20117;-60
2022/04/12 09:39:02;;;;;;;2.67;2.27;;;9.10;72.00;;;;;;5043558;28;20135;-61
2022/04/12 09:42:07;;;;;;;1.90;1.80;;;9.10;71.30;;;;;;5035160;28;20041;-60
2022/04/12 09:44:33;;;;;;;2.45;1.90;;;9.20;70.90;;;;;;5031683;28;21410;-60
2022/04/12 09:47:14;;;;;;;2.15;1.95;;;9.20;71.20;;;;;;5040258;28;20074;-60
2022/04/12 09:50:02;;;;;;;2.53;2.00;;;9.20;70.60;;;;;;5047767;28;20029;-59
2022/04/12 09:53:10;;;;;;;2.67;1.90;;;9.20;70.70;;;;;;5045473;28;20029;-59
2022/04/12 09:55:45;;;;;;;1.98;1.77;;;9.30;70.20;;;;;;5047569;28;20457;-60
2022/04/12 09:58:12;;;;;;;2.10;1.98;;;9.30;70.00;;;;;;5042023;28;20075;-60
2022/04/12 10:00:39;;;;;;;3.63;3.03;;;9.30;70.90;;;;;;5049456;28;20170;-60
2022/04/12 10:03:10;;;;;;;2.70;2.40;;;9.30;69.40;;;;;;5046654;28;20090;-59
2022/04/12 10:05:36;;;;;;;3.45;2.70;;;9.40;69.20;;;;;;5040210;28;20025;-59
2022/04/12 10:08:03;;;;;;;3.35;2.40;;;9.30;69.20;;;;;;5042575;28;20039;-60
2022/04/12 10:10:29;;;;;;;2.20;2.00;;;9.30;69.30;;;;;;5045258;28;20111;-60
2022/04/12 10:12:57;;;;;;;2.05;1.83;;;9.40;69.30;;;;;;5038749;28;20523;-60
2022/04/12 10:15:25;;;;;;;2.10;1.90;;;9.40;69.10;;;;;;5043296;28;20025;-59
2022/04/12 10:17:51;;;;;;;4.03;1.95;;;9.40;69.20;;;;;;5045503;28;20139;-59
2022/04/12 10:20:18;;;;;;;2.00;1.80;;;9.40;68.70;;;;;;5047375;28;20120;-61
2022/04/12 10:22:48;;;;;;;2.03;1.83;;;9.40;67.30;;;;;;5048337;28;20671;-60
2022/04/12 10:25:20;;;;;;;2.20;1.85;;;9.40;67.50;;;;;;5045196;28;20681;-59
2022/04/12 10:27:48;;;;;;;2.38;2.10;;;9.40;67.60;;;;;;5043315;28;20495;-60
2022/04/12 10:30:17;;;;;;;2.20;2.00;;;9.50;67.80;;;;;;5047263;28;20032;-60
2022/04/12 10:33:07;;;;;;;2.40;1.92;;;9.50;67.50;;;;;;5052865;28;20043;-60
2022/04/12 10:35:42;;;;;;;1.80;1.70;;;9.50;67.30;;;;;;5051251;28;20102;-60
2022/04/12 10:38:09;;;;;;;2.40;2.10;;;9.60;67.70;;;;;;5047541;28;21680;-60
2022/04/12 10:40:51;;;;;;;2.20;1.92;;;9.60;67.30;;;;;;5054096;28;20136;-59
2022/04/12 10:43:29;;;;;;;3.42;2.17;;;9.60;66.90;;;;;;5054072;28;20460;-60
2022/04/12 10:46:17;;;;;;;2.65;2.03;;;9.60;66.40;;;;;;5052254;28;20017;-60
2022/04/12 10:49:29;;;;;;;2.13;1.92;;;9.60;65.90;;;;;;5047722;28;20025;-60
2022/04/12 10:51:57;;;;;;;2.30;1.65;;;9.60;65.80;;;;;;5050619;28;20045;-60
2022/04/12 10:54:31;;;;;;;2.00;1.80;;;9.60;66.10;;;;;;5054200;28;20048;-60
2022/04/12 10:57:19;;;;;;;2.70;2.15;;;9.60;66.00;;;;;;5048377;28;20048;-60
2022/04/12 11:00:09;;;;;;;2.22;1.90;;;9.60;66.00;;;;;;5042735;28;20488;-59
2022/04/12 11:02:42;;;;;;;2.25;1.83;;;9.60;65.80;;;;;;5034629;28;20089;-59
2022/04/12 11:05:37;;;;;;;2.65;1.98;;;9.60;65.70;;;;;;5038364;28;20029;-61
2022/04/12 11:08:06;;;;;;;4.70;3.20;;;9.60;65.30;;;;;;5047001;28;20120;-60
2022/04/12 11:10:32;;;;;;;3.05;2.30;;;9.60;65.50;;;;;;5049255;28;20032;-60
2022/04/12 11:13:11;;;;;;;3.10;2.35;;;9.60;65.40;;;;;;5045648;28;20048;-59
2022/04/12 11:15:40;;;;;;;2.58;2.10;;;9.60;65.20;;;;;;5040301;28;20033;-60
2022/04/12 11:18:13;;;;;;;2.40;2.15;;;9.60;65.10;;;;;;5045669;28;20097;-60
2022/04/12 11:21:02;;;;;;;2.88;2.10;;;9.60;65.10;;;;;;5036035;28;20036;-58
2022/04/12 11:23:55;;;;;;;2.17;2.00;;;9.60;64.60;;;;;;5044133;28;24065;-60
2022/04/12 11:26:40;;;;;;;2.80;2.30;;;9.60;64.70;;;;;;5039816;28;20040;-60
2022/04/12 11:29:11;;;;;;;2.28;2.03;;;9.60;64.80;;;;;;5040695;28;20041;-60
2022/04/12 11:31:45;;;;;;;1.92;1.83;;;9.60;64.90;;;;;;5043511;28;20050;-60
2022/04/12 11:34:11;;;;;;;2.08;1.98;;;9.60;65.00;;;;;;5044465;28;20036;-60
2022/04/12 11:37:04;;;;;;;2.45;1.92;;;9.60;65.10;;;;;;5044772;28;20111;-60
2022/04/12 11:39:31;;;;;;;2.03;1.90;;;9.70;65.00;;;;;;5046480;28;20080;-61
2022/04/12 11:41:59;;;;;;;2.80;1.90;;;9.70;65.00;;;;;;5047786;28;20048;-59
2022/04/12 11:44:25;;;;;;;1.80;1.70;;;9.70;64.60;;;;;;5052487;28;20039;-59
2022/04/12 11:47:00;;;;;;;2.53;1.95;;;9.70;64.20;;;;;;5052555;28;20028;-60
2022/04/12 11:49:30;;;;;;;2.03;1.88;;;9.70;63.80;;;;;;5047804;28;20075;-60
2022/04/12 11:52:01;;;;;;;2.40;2.20;;;9.70;63.70;;;;;;5042726;28;22046;-60
2022/04/12 11:54:32;;;;;;;2.03;1.83;;;9.70;64.00;;;;;;5051096;28;20583;-59
2022/04/12 11:57:11;;;;;;;2.55;2.20;;;9.70;64.00;;;;;;5053372;28;20516;-60
2022/04/12 11:59:50;;;;;;;2.67;2.30;;;9.80;64.10;;;;;;5045979;28;20116;-60
2022/04/12 12:02:18;;;;;;;2.42;2.22;;;9.80;64.00;;;;;;5047241;28;20032;-60
2022/04/12 12:04:47;;;;;;;2.20;2.00;;;9.80;64.20;;;;;;5056854;28;20077;-61
2022/04/12 12:07:14;;;;;;;2.20;2.00;;;9.80;63.90;;;;;;5038665;28;20027;-60
2022/04/12 12:09:59;;;;;;;2.70;2.00;;;9.80;64.20;;;;;;5044821;28;20074;-60
2022/04/12 12:12:45;;;;;;;2.95;2.03;;;9.80;64.10;;;;;;5047346;28;21605;-60
2022/04/12 12:15:27;;;;;;;2.20;2.00;;;9.70;64.10;;;;;;5049445;28;20124;-60
2022/04/12 12:17:55;;;;;;;2.20;2.00;;;9.70;63.90;;;;;;5048653;28;20028;-60
2022/04/12 12:20:23;;;;;;;2.25;2.00;;;9.70;64.00;;;;;;5048954;28;20180;-61
2022/04/12 12:22:57;;;;;;;4.05;2.60;;;9.60;64.00;;;;;;5050924;28;20479;-60
2022/04/12 12:25:40;;;;;;;3.60;2.20;;;9.60;63.90;;;;;;5048734;28;20112;-60
2022/04/12 12:28:18;;;;;;;2.60;1.90;;;9.60;63.70;;;;;;5048675;28;20029;-60
2022/04/12 12:30:46;;;;;;;2.33;2.13;;;9.60;63.80;;;;;;5047678;28;20040;-60
2022/04/12 12:33:13;;;;;;;2.50;2.30;;;9.50;63.90;;;;;;5048592;28;20024;-60
2022/04/12 12:35:44;;;;;;;3.15;2.55;;;9.50;63.80;;;;;;5050390;28;20578;-60
2022/04/12 12:38:11;;;;;;;;;;;9.50;63.90;;;;;;5040939;28;21492;-60
2022/04/12 12:40:38;;;;;;;2.78;2.10;;;9.50;64.20;;;;;;5052338;28;19916;-60
2022/04/12 12:43:06;;;;;;;2.78;2.15;;;9.50;64.40;;;;;;5048844;28;20414;-60
2022/04/12 12:45:34;;;;;;;2.83;2.05;;;9.50;64.50;;;;;;5045584;28;20059;-60
2022/04/12 12:48:00;;;;;;;2.33;2.00;;;9.50;64.70;;;;;;5047842;28;20151;-60
2022/04/12 12:50:31;;;;;;;3.30;2.15;;;9.50;64.70;;;;;;5043520;28;20038;-60
2022/04/12 12:53:02;;;;;;;1.92;1.83;;;9.50;64.60;;;;;;5050176;28;20028;-60
2022/04/12 12:55:31;;;;;;;3.30;2.30;;;9.50;64.90;;;;;;5047904;28;20056;-60
2022/04/12 12:58:03;;;;;;;3.92;2.67;;;9.50;64.90;;;;;;5047730;28;20042;-60
2022/04/12 13:00:30;;;;;;;4.95;2.60;;;9.50;65.00;;;;;;5045705;28;20484;-60
2022/04/12 13:03:07;;;;;;;2.85;2.08;;;9.60;65.00;;;;;;5050036;28;20071;-60
2022/04/12 13:05:33;;;;;;;2.78;2.20;;;9.60;64.60;;;;;;5049996;28;20031;-60
2022/04/12 13:08:00;;;;;;;3.35;2.33;;;9.60;64.70;;;;;;5054242;28;20032;-60